Flight Track Log - Related Links

Times and Time Zones

All times are in EDT time to prevent confusion due to time zone crossing. See the UAL582 flight status page for this flight to view local times or setup timezone preferences in your user account.

Time Position Orientation Groundspeed Altitude Reporting Facility
EDT Latitude Longitude Course Direction KTS MPH feet Rate Location/Type
Fri 05:57:31 PM 43.6500 -79.6833 278° West 130 150 3,200  Level Toronto Center
Fri 05:58:31 PM 43.6333 -79.7333 245° Southwest 200 230 5,600 2,650 Climbing Toronto Center
Fri 05:59:00 PM 43.6667 -79.9597 270° West  Level FlightAware
Fri 05:59:31 PM 43.6833 -79.8000 316° Northwest 260 299 8,500  Level Toronto Center
Fri 06:00:00 PM 43.6845 -80.0732 283° West  Level FlightAware
Fri 06:00:31 PM 43.7167 -79.8833 299° West 250 288 11,300  Level Toronto Center
Fri 06:01:00 PM 43.7000 -80.1871 270° West  Level FlightAware
Fri 06:01:31 PM 43.7167 -79.9833 270° West 250 288 14,100  Level Toronto Center
Fri 06:02:00 PM 43.7086 -80.3027 278° West  Level FlightAware
Fri 06:02:31 PM 43.7167 -80.1000 270° West 270 311 17,100  Level Toronto Center
Fri 06:03:31 PM 43.7333 -80.1833 285° West 280 322 19,900 2,650 Climbing Toronto Center
Fri 06:04:31 PM 43.7333 -80.3000 270° West 280 322 22,400 2,200 Climbing Toronto Center
Fri 06:05:31 PM 43.7333 -80.4000 270° West 280 322 24,300 1,850 Climbing Toronto Center
Fri 06:06:31 PM 43.7333 -80.5333 270° West 290 334 26,100 1,400 Climbing Toronto Center
Fri 06:07:31 PM 43.7167 -80.6167 255° West 290 334 27,100 1,150 Climbing Toronto Center
Fri 06:08:31 PM 43.7000 -80.7333 259° West 300 345 28,400 1,350 Climbing Toronto Center
Fri 06:09:31 PM 43.6667 -80.8500 248° West 300 345 29,800 1,300 Climbing Toronto Center
Fri 06:10:31 PM 43.6333 -80.9500 245° Southwest 300 345 31,000 1,300 Climbing Toronto Center
Fri 06:11:31 PM 43.6167 -81.0833 260° West 310 357 32,400 1,450 Climbing Toronto Center
Fri 06:12:31 PM 43.5833 -81.1833 245° Southwest 310 357 33,900 1,400 Climbing Toronto Center
Fri 06:13:31 PM 43.5667 -81.2833 257° West 300 345 35,200 1,050 Climbing Toronto Center
Fri 06:14:31 PM 43.5500 -81.4000 259° West 300 345 36,000 800 Climbing Toronto Center
Fri 06:15:31 PM 43.5167 -81.5167 249° West 300 345 36,800 550 Climbing Toronto Center
Fri 06:16:31 PM 43.5000 -81.6333 259° West 310 357 37,100 350 Climbing Toronto Center
Fri 06:17:31 PM 43.4667 -81.7500 249° West 330 380 37,500 400 Climbing Toronto Center
Fri 06:18:31 PM 43.4500 -81.8833 260° West 340 391 37,900 250 Climbing Toronto Center
Fri 06:19:31 PM 43.4000 -82.0000 239° Southwest 350 403 38,000 50 Climbing Toronto Center
Fri 06:20:31 PM 43.3667 -82.1333 251° West 360 414 38,000 -50 Level Toronto Center
Fri 06:21:31 PM 43.3500 -82.2667 260° West 350 403 37,900 -400 Descending Toronto Center
Fri 06:22:31 PM 43.3167 -82.3833 249° West 350 403 37,200 -700 Descending Toronto Center
Fri 06:23:31 PM 43.2500 -82.4667 222° Southwest 330 380 36,500 -700 Descending Toronto Center
Fri 06:24:31 PM 43.2000 -82.5667 236° Southwest 320 368 35,800 -700 Descending Toronto Center
Fri 06:25:31 PM 43.1167 -82.6500 216° Southwest 320 368 35,100 -700 Descending Toronto Center
Fri 06:26:31 PM 43.0667 -82.7667 240° Southwest 330 380 34,400 -550 Descending Toronto Center
Fri 06:27:31 PM 43.0500 -82.9000 260° West 360 414 34,000 -300 Descending Toronto Center
Fri 06:28:31 PM 43.0500 -83.0333 270° West 370 426 33,800 -450 Descending Toronto Center
Fri 06:29:31 PM 43.0333 -83.1667 260° West 360 414 33,100 -700 Descending Toronto Center
Fri 06:30:31 PM 43.0000 -83.3000 251° West 360 414 32,400 -550 Descending Toronto Center
Fri 06:31:31 PM 42.9833 -83.4333 260° West 380 437 32,000 -200 Descending Toronto Center
Fri 06:32:31 PM 42.9833 -83.5833 270° West 370 426 32,000  Level Toronto Center
Fri 06:33:31 PM 42.9500 -83.7333 253° West 370 426 32,000  Level Toronto Center
Fri 06:34:31 PM 42.9333 -83.8667 260° West 370 426 32,000  Level Toronto Center
Fri 06:35:45 PM 42.9356 -84.0403 271° West 369 425 32,000 45 Level Cleveland Center
Fri 06:36:45 PM 42.9228 -84.1869 263° West 381 438 32,100  Climbing Cleveland Center
Fri 06:38:31 PM 42.8833 -84.4333 258° West 380 437 32,000 -42 Descending Toronto Center
Fri 06:39:08 PM 42.8914 -84.5053 279° West 382 440 32,000  Level Chicago Center
Fri 06:40:10 PM 42.8781 -84.6478 263° West 379 436 32,000  Level Chicago Center
Fri 06:41:12 PM 42.8600 -84.8164 262° West 377 434 32,000  Level Chicago Center
Fri 06:42:14 PM 42.8458 -84.9592 262° West 380 437 32,000  Level Chicago Center
Fri 06:43:16 PM 42.8303 -85.1019 262° West 381 438 32,000 -97 Level Chicago Center
Fri 06:44:18 PM 42.8144 -85.2464 262° West 385 443 31,800 -726 Descending Chicago Center
Fri 06:45:20 PM 42.7986 -85.3914 262° West 387 445 30,500 -1,452 Descending Chicago Center
Fri 06:46:22 PM 42.7803 -85.5358 260° West 388 447 28,800 -1,694 Descending Chicago Center
Fri 06:47:24 PM 42.7553 -85.6744 256° West 378 435 27,000 -1,935 Descending Chicago Center
Fri 06:48:26 PM 42.7258 -85.8369 256° West 369 425 24,800 -1,935 Descending Chicago Center
Fri 06:49:28 PM 42.7025 -85.9650 256° West 352 405 23,000 -1,645 Descending Chicago Center
Fri 06:50:30 PM 42.6789 -86.0922 256° West 346 398 21,400 -1,452 Descending Chicago Center
Fri 06:51:32 PM 42.6569 -86.2150 256° West 338 389 20,000 -677 Descending Chicago Center
Fri 06:52:34 PM 42.6344 -86.3294 255° West 319 367 20,000 -341 Level Chicago Center
Fri 06:53:35 PM 42.6119 -86.4464 255° West 318 366 19,300 -1,171 Descending Chicago Center
Fri 06:54:37 PM 42.5908 -86.5611 256° West 314 361 17,600 -1,645 Descending Chicago Center
Fri 06:55:39 PM 42.5692 -86.6736 255° West 310 357 15,900 -1,645 Descending Chicago Center
Fri 06:56:41 PM 42.5408 -86.7983 253° West 288 331 14,200 -1,548 Descending Chicago Center
Fri 06:57:43 PM 42.5142 -86.8972 250° West 281 323 12,700 -1,452 Descending Chicago Center
Fri 06:58:45 PM 42.4881 -86.9953 250° West 277 319 11,200 -1,306 Descending Chicago Center
Fri 06:59:47 PM 42.4600 -87.0894 248° West 271 312 10,000 -634 Descending Chicago Center
Fri 07:00:48 PM 42.4356 -87.1831 251° West 264 304 9,900 -293 Descending Chicago Center
Fri 07:01:50 PM 42.4119 -87.2678 249° West 245 282 9,400 -629 Descending Chicago Center
Fri 07:02:52 PM 42.3828 -87.3739 250° West 250 288 8,600 -1,065 Descending Chicago Center
Fri 07:03:54 PM 42.3378 -87.4300 223° Southwest 256 295 7,200 -1,355 Descending Chicago Center
Fri 07:04:56 PM 42.2686 -87.4161 172° South 279 321 5,800 -1,065 Descending Chicago Center
Fri 07:05:58 PM 42.1803 -87.3958 170° South 273 314 5,000 -878 Descending Chicago Center
Fri 07:06:59 PM 42.1067 -87.3775 170° South 271 312 4,000 -667 Descending Chicago Center
Fri 07:07:28 PM 42.0667 -87.3833 186° South 269 310 4,000  Level Chicago TRACON
Fri 07:08:22 PM 42.0333 -87.4333 228° Southwest 238 274 4,000  Level Chicago TRACON
Fri 07:09:23 PM 42.0000 -87.5000 236° Southwest 220 253 4,000  Level Chicago TRACON
Fri 07:10:28 PM 42.0000 -87.5833 270° West 186 214 4,000  Level Chicago TRACON
Fri 07:11:29 PM 42.0000 -87.6500 270° West 191 220 4,000 -313 Level Chicago TRACON
Fri 07:12:23 PM 42.0000 -87.7167 270° West 176 203 3,400 -789 Descending Chicago TRACON
Fri 07:13:23 PM 42.0000 -87.7833 270° West 154 177 2,500 -900 Descending Chicago TRACON

Login

Don't have an account? Register now (free) for customized features, flight alerts, and more!